createdAt,value
2022-11-24T00:00:14.830Z,8.25
2022-11-24T00:04:16.751Z,8.40
2022-11-24T00:08:18.710Z,8.43
2022-11-24T00:12:20.622Z,8.45
2022-11-24T00:16:34.561Z,8.42
2022-11-24T00:20:36.665Z,8.47
2022-11-24T00:24:38.791Z,8.63
2022-11-24T00:28:41.861Z,8.77
2022-11-24T00:32:43.804Z,8.81
2022-11-24T00:36:45.728Z,8.70
2022-11-24T00:40:47.668Z,8.69
2022-11-24T00:44:51.787Z,8.81
2022-11-24T00:48:54.069Z,8.89
2022-11-24T00:52:56.035Z,8.97
2022-11-24T00:56:57.987Z,8.99
2022-11-24T01:01:05.558Z,9.03
2022-11-24T01:05:08.039Z,9.04
2022-11-24T01:09:11.415Z,8.98
2022-11-24T01:13:13.450Z,8.99
2022-11-24T01:17:15.442Z,9.00
2022-11-24T01:21:18.662Z,9.00
2022-11-24T01:25:20.782Z,8.96
2022-11-24T01:29:22.823Z,8.86
2022-11-24T01:33:24.868Z,8.87
2022-11-24T01:37:26.861Z,8.92
2022-11-24T01:41:28.845Z,8.92
2022-11-24T01:45:40.747Z,8.83
2022-11-24T01:49:49.861Z,8.68
2022-11-24T01:54:08.070Z,8.47
2022-11-24T01:58:17.419Z,8.41
2022-11-24T02:02:20.555Z,8.38
2022-11-24T02:06:29.997Z,8.40
2022-11-24T02:10:32.031Z,8.46
2022-11-24T02:14:36.575Z,8.49
2022-11-24T02:18:38.913Z,8.43
2022-11-24T02:22:49.998Z,8.59
2022-11-24T02:26:54.830Z,8.49
2022-11-24T02:30:58.263Z,8.38
2022-11-24T02:35:05.473Z,8.32
2022-11-24T02:39:14.402Z,8.29
2022-11-24T02:43:21.800Z,8.42
2022-11-24T02:47:23.728Z,8.46
2022-11-24T02:51:25.785Z,8.52
2022-11-24T02:55:27.714Z,8.53
2022-11-24T02:59:29.780Z,8.63
2022-11-24T03:03:31.948Z,8.62
2022-11-24T03:07:34.152Z,8.48
2022-11-24T03:11:37.365Z,8.38
2022-11-24T03:15:41.286Z,8.19
2022-11-24T03:19:43.268Z,8.33
2022-11-24T03:23:45.560Z,8.38
2022-11-24T03:27:47.832Z,8.41
2022-11-24T03:31:49.899Z,8.53
2022-11-24T03:35:51.945Z,8.68
2022-11-24T03:39:53.980Z,8.70
2022-11-24T03:43:56.343Z,8.66
2022-11-24T03:47:58.352Z,8.75
2022-11-24T03:52:05.228Z,8.88
2022-11-24T03:56:09.892Z,8.80
2022-11-24T04:00:12.158Z,8.89
2022-11-24T04:04:14.604Z,8.99
2022-11-24T04:08:17.212Z,9.08
2022-11-24T04:12:37.668Z,9.11
2022-11-24T04:16:39.739Z,9.04
2022-11-24T04:20:42.379Z,8.92
2022-11-24T04:24:44.561Z,8.91
2022-11-24T04:28:46.601Z,8.98
2022-11-24T04:32:48.933Z,9.05
2022-11-24T04:36:51.016Z,9.12
2022-11-24T04:40:53.082Z,9.11
2022-11-24T04:44:55.674Z,9.15
2022-11-24T04:48:57.887Z,9.11
2022-11-24T04:53:00.412Z,9.19
2022-11-24T04:57:02.432Z,9.26
2022-11-24T05:01:07.318Z,9.32
2022-11-24T05:05:09.611Z,9.30
2022-11-24T05:09:16.127Z,9.14
2022-11-24T05:13:18.421Z,9.03
2022-11-24T05:17:20.773Z,9.12
2022-11-24T05:21:23.496Z,9.20
2022-11-24T05:25:25.488Z,9.23
2022-11-24T05:29:27.568Z,9.20
2022-11-24T05:33:30.156Z,9.25
2022-11-24T05:37:32.201Z,9.23
2022-11-24T05:41:34.171Z,9.00
2022-11-24T05:45:36.164Z,9.07
2022-11-24T05:49:38.386Z,9.19
2022-11-24T05:53:40.336Z,9.22
2022-11-24T05:57:43.350Z,9.29
2022-11-24T06:01:45.969Z,9.30
2022-11-24T06:05:48.330Z,9.37
2022-11-24T06:09:50.507Z,9.43
2022-11-24T06:13:52.522Z,9.45
2022-11-24T06:17:56.318Z,9.40
2022-11-24T06:21:58.822Z,9.29
2022-11-24T06:26:01.436Z,9.08
2022-11-24T06:30:04.102Z,9.09
2022-11-24T06:34:07.820Z,8.89
2022-11-24T06:38:09.835Z,8.86
2022-11-24T06:42:11.839Z,8.80
2022-11-24T06:46:13.875Z,8.75
2022-11-24T06:50:16.361Z,8.72
2022-11-24T06:54:21.197Z,8.62
2022-11-24T06:58:23.409Z,8.57
2022-11-24T07:02:25.457Z,8.76
2022-11-24T07:06:28.547Z,8.87
2022-11-24T07:10:30.577Z,8.54
2022-11-24T07:14:32.894Z,8.64
2022-11-24T07:18:35.300Z,8.78
2022-11-24T07:22:37.646Z,8.94
2022-11-24T07:26:40.234Z,9.05
2022-11-24T07:30:42.197Z,9.28
2022-11-24T07:34:44.247Z,9.53
2022-11-24T07:38:46.423Z,9.72
2022-11-24T07:42:48.461Z,9.91
2022-11-24T07:46:51.395Z,10.10
2022-11-24T07:50:56.042Z,10.25
2022-11-24T07:54:59.063Z,10.32
2022-11-24T07:59:01.423Z,10.47
2022-11-24T08:03:03.422Z,10.62
2022-11-24T08:07:05.452Z,10.74
2022-11-24T08:11:09.582Z,10.84
2022-11-24T08:15:11.801Z,10.95
2022-11-24T08:19:13.898Z,11.16
2022-11-24T08:23:16.440Z,11.30
2022-11-24T08:27:19.485Z,11.29
2022-11-24T08:31:21.560Z,11.29
2022-11-24T08:35:23.620Z,11.40
2022-11-24T08:39:25.764Z,11.47
2022-11-24T08:43:27.852Z,11.60
2022-11-24T08:47:29.851Z,11.58
2022-11-24T08:51:31.969Z,11.27
2022-11-24T08:55:34.048Z,11.15
2022-11-24T08:59:36.094Z,11.23
2022-11-24T09:03:42.207Z,11.24
2022-11-24T09:07:47.020Z,11.13
2022-11-24T09:11:49.110Z,11.24
2022-11-24T09:15:51.109Z,11.43
2022-11-24T09:19:53.125Z,11.68
2022-11-24T09:23:56.125Z,11.76
2022-11-24T09:28:00.023Z,11.66
2022-11-24T09:32:06.489Z,11.55
2022-11-24T09:36:09.411Z,11.52
2022-11-24T09:40:14.343Z,11.48
2022-11-24T09:44:46.170Z,11.46
2022-11-24T09:48:52.563Z,11.51
2022-11-24T09:53:03.782Z,11.60
2022-11-24T09:57:07.024Z,11.66
2022-11-24T10:01:17.163Z,11.68
2022-11-24T10:05:19.601Z,11.73
2022-11-24T10:09:32.520Z,11.79
2022-11-24T10:13:37.815Z,11.80
2022-11-24T10:17:58.570Z,11.86
2022-11-24T10:22:33.717Z,11.91
2022-11-24T10:26:37.986Z,12.02
2022-11-24T10:30:40.397Z,12.04
2022-11-24T10:34:46.181Z,12.01
2022-11-24T10:39:23.689Z,11.96
2022-11-24T10:43:30.842Z,12.10
2022-11-24T10:47:32.911Z,12.24
2022-11-24T10:51:49.992Z,12.20
2022-11-24T10:55:57.894Z,12.35
2022-11-24T11:00:01.103Z,12.47
2022-11-24T11:04:17.134Z,12.59
2022-11-24T11:08:30.377Z,12.64
2022-11-24T11:12:47.632Z,12.75
2022-11-24T11:16:55.935Z,12.81
2022-11-24T11:21:03.771Z,12.69
2022-11-24T11:25:11.940Z,12.90
2022-11-24T11:34:16.015Z,13.47
2022-11-24T11:38:17.543Z,13.57
2022-11-24T11:43:01.208Z,13.54
2022-11-24T11:47:08.842Z,13.54
2022-11-24T11:51:29.693Z,13.60
2022-11-24T11:55:50.092Z,13.50
2022-11-24T12:00:05.271Z,13.47
2022-11-24T12:04:21.667Z,13.46
2022-11-24T12:09:11.497Z,13.38
2022-11-24T12:13:14.137Z,13.37
2022-11-24T12:17:31.745Z,13.45
2022-11-24T12:22:09.361Z,13.64
2022-11-24T12:26:34.803Z,13.75
2022-11-24T12:30:47.511Z,13.83
2022-11-24T12:35:02.958Z,13.86
2022-11-24T12:39:25.072Z,13.93
2022-11-24T12:43:40.401Z,14.05
2022-11-24T12:47:42.447Z,14.07
2022-11-24T12:51:50.882Z,14.15
2022-11-24T12:55:55.027Z,14.28
2022-11-24T13:00:07.967Z,14.23
2022-11-24T13:04:29.547Z,14.08
2022-11-24T13:08:31.908Z,14.19
2022-11-24T13:12:33.964Z,14.18
2022-11-24T13:17:13.477Z,14.19
2022-11-24T13:21:51.044Z,14.14
2022-11-24T13:26:16.053Z,13.92
2022-11-24T13:30:54.701Z,13.61
2022-11-24T13:35:12.362Z,13.59
2022-11-24T13:39:21.264Z,13.60
2022-11-24T13:43:23.347Z,13.70
2022-11-24T13:47:36.008Z,13.70
2022-11-24T13:51:38.173Z,13.73
2022-11-24T13:55:41.412Z,13.69
2022-11-24T13:59:43.870Z,13.76
2022-11-24T14:04:29.300Z,13.75
2022-11-24T14:08:33.814Z,13.68
2022-11-24T14:12:35.835Z,13.66
2022-11-24T14:16:37.917Z,13.60
2022-11-24T14:20:40.036Z,13.54
2022-11-24T14:24:45.503Z,13.50
2022-11-24T14:28:48.413Z,13.42
2022-11-24T14:33:04.094Z,13.28
2022-11-24T14:37:06.334Z,13.29
2022-11-24T14:41:23.107Z,13.26
2022-11-24T14:45:25.231Z,13.21
2022-11-24T14:49:27.488Z,13.16
2022-11-24T14:53:29.886Z,13.09
2022-11-24T14:57:37.765Z,12.99
2022-11-24T15:01:39.977Z,12.90
2022-11-24T15:05:55.944Z,12.74
2022-11-24T15:10:00.888Z,12.63
2022-11-24T15:14:03.190Z,12.53
2022-11-24T15:18:06.724Z,12.41
2022-11-24T15:22:33.299Z,12.31
2022-11-24T15:26:41.349Z,12.08
2022-11-24T15:30:44.217Z,11.90
2022-11-24T15:34:46.608Z,11.71
2022-11-24T15:38:48.959Z,11.57
2022-11-24T15:42:55.999Z,11.28
2022-11-24T15:46:58.134Z,10.89
2022-11-24T15:51:05.063Z,10.62
2022-11-24T15:55:12.879Z,10.39
2022-11-24T15:59:20.296Z,10.11
2022-11-24T16:07:45.655Z,9.69
2022-11-24T16:11:48.347Z,9.55
2022-11-24T16:15:50.395Z,9.43
2022-11-24T16:20:00.331Z,9.28
2022-11-24T16:24:02.882Z,9.17
2022-11-24T16:28:05.412Z,9.10
2022-11-24T16:32:07.520Z,8.99
2022-11-24T16:36:09.711Z,8.86
2022-11-24T16:40:16.542Z,8.64
2022-11-24T16:44:19.618Z,8.62
2022-11-24T16:48:21.606Z,8.55
2022-11-24T16:52:23.740Z,8.39
2022-11-24T16:56:27.291Z,8.33
2022-11-24T17:00:29.369Z,8.12
2022-11-24T17:04:31.645Z,7.99
2022-11-24T17:08:35.338Z,7.95
2022-11-24T17:12:37.964Z,7.86
2022-11-24T17:16:40.110Z,7.74
2022-11-24T17:20:42.171Z,7.80
2022-11-24T17:24:44.278Z,7.67
2022-11-24T17:28:46.929Z,7.51
2022-11-24T17:32:52.426Z,7.45
2022-11-24T17:36:58.657Z,7.38
2022-11-24T17:41:00.979Z,7.33
2022-11-24T17:45:03.181Z,7.29
2022-11-24T17:49:06.804Z,7.23
2022-11-24T17:53:08.888Z,6.97
2022-11-24T17:57:10.937Z,6.80
2022-11-24T18:01:13.833Z,6.85
2022-11-24T18:05:16.060Z,6.82
2022-11-24T18:09:18.143Z,6.63
2022-11-24T18:13:41.156Z,6.46
2022-11-24T18:17:42.176Z,6.37
2022-11-24T18:21:45.185Z,6.37
2022-11-24T18:25:58.642Z,6.31
2022-11-24T18:30:00.682Z,6.20
2022-11-24T18:34:04.353Z,6.20
2022-11-24T18:38:06.877Z,6.24
2022-11-24T18:42:10.285Z,6.14
2022-11-24T18:46:15.007Z,6.00
2022-11-24T18:50:17.613Z,5.97
2022-11-24T18:54:19.616Z,6.00
2022-11-24T18:58:21.794Z,5.96
2022-11-24T19:02:23.873Z,5.98
2022-11-24T19:06:32.035Z,6.04
2022-11-24T19:10:38.787Z,5.95
2022-11-24T19:14:40.802Z,5.90
2022-11-24T19:18:42.957Z,5.77
2022-11-24T19:22:45.119Z,5.63
2022-11-24T19:26:47.327Z,5.61
2022-11-24T19:30:51.476Z,5.69
2022-11-24T19:34:57.501Z,5.87
2022-11-24T19:39:00.186Z,5.99
2022-11-24T19:43:09.087Z,5.99
2022-11-24T19:47:32.996Z,6.04
2022-11-24T19:51:50.442Z,5.77
2022-11-24T19:55:55.561Z,5.82
2022-11-24T19:59:59.889Z,5.82
2022-11-24T20:04:12.485Z,5.67
2022-11-24T20:08:14.527Z,5.62
2022-11-24T20:12:16.530Z,5.54
2022-11-24T20:16:26.668Z,5.50
2022-11-24T20:20:28.958Z,5.48
2022-11-24T20:24:31.141Z,5.29
2022-11-24T20:28:33.581Z,5.15
2022-11-24T20:32:35.600Z,5.15
2022-11-24T20:36:40.533Z,5.19
2022-11-24T20:40:42.658Z,5.04
2022-11-24T20:44:44.931Z,4.95
2022-11-24T20:48:47.676Z,4.92
2022-11-24T20:52:49.886Z,5.02
2022-11-24T20:56:52.133Z,5.01
2022-11-24T21:00:54.361Z,4.95
2022-11-24T21:04:56.662Z,5.01
2022-11-24T21:09:03.520Z,4.90
2022-11-24T21:13:06.137Z,4.93
2022-11-24T21:17:08.183Z,4.93
2022-11-24T21:21:11.061Z,4.85
2022-11-24T21:25:13.321Z,4.78
2022-11-24T21:29:19.401Z,4.78
2022-11-24T21:33:21.611Z,4.70
2022-11-24T21:37:23.678Z,4.65
2022-11-24T21:41:28.178Z,4.57
2022-11-24T21:45:30.411Z,4.61
2022-11-24T21:49:32.560Z,4.64
2022-11-24T21:53:36.510Z,4.60
2022-11-24T21:57:40.187Z,4.53
2022-11-24T22:01:52.914Z,4.45
2022-11-24T22:05:56.832Z,4.37
2022-11-24T22:09:59.893Z,4.43
2022-11-24T22:14:03.560Z,4.38
2022-11-24T22:18:06.297Z,4.46
2022-11-24T22:22:08.398Z,4.43
2022-11-24T22:26:16.118Z,4.39
2022-11-24T22:30:19.180Z,4.29
2022-11-24T22:34:21.704Z,4.21
2022-11-24T22:38:24.556Z,4.05
2022-11-24T22:42:26.640Z,4.07
2022-11-24T22:46:30.352Z,3.93
2022-11-24T22:50:32.566Z,4.02
2022-11-24T22:54:34.992Z,4.06
2022-11-24T22:58:38.571Z,3.97
2022-11-24T23:02:40.751Z,3.82
2022-11-24T23:06:43.199Z,3.98
2022-11-24T23:10:45.229Z,3.96
2022-11-24T23:14:47.465Z,3.91
2022-11-24T23:18:53.794Z,3.88
2022-11-24T23:22:57.037Z,3.90
2022-11-24T23:26:59.351Z,3.90
2022-11-24T23:31:07.434Z,3.93
2022-11-24T23:35:13.602Z,3.90
2022-11-24T23:39:16.231Z,3.84
2022-11-24T23:43:18.238Z,3.81
2022-11-24T23:47:20.541Z,3.82
2022-11-24T23:51:28.669Z,3.80
2022-11-24T23:55:30.656Z,3.80
2022-11-24T23:59:32.680Z,3.92
